Ashville, Pennsylvania
Current Conditions -  °F | °C
As of 4:53 AM on Thursday 29 Jan 2015 (Local Time) from KAOO Reporting Station
Clear Clear  
Wind Chill: -12°   Ceiling: Unl
Heat Index: -12°   Visibility: 10mi
Dew Point: -16°   Wind: 0mph
Humidity: 73%   Direction: NA
Pressure: 30.21"   Gusts: NA
Location:  40.56°N, 78.55°W
Report Text: KAOO 290953Z AUTO 00000KT 10SM CLR M12/M16 A3021 RMK AO2 SLP259 T11171156
Loading
Personal Weather Stations






























Interactive Weather Map New forecast layout! Learn more

10-Day Weather Forecast

Advertisements
Track Severe Weather on mobile